Time;durP1;ratioP1;P1;durP2;ratioP2;P2;SDS_P1;SDS_P2;PMS_P1;PMS_P2;Temp;Humidity;BMP_temperature;BMP_pressure;BME280_temperature;BME280_humidity;BME280_pressure;Samples;Min_cycle;Max_cycle;Signal;HPM_P1;HPM_P2
2024/02/06 00:01:10;;;;;;;;;16.00;14.00;;;;;;;;4981228;28;45293;-68
2024/02/06 00:03:35;;;;;;;;;9.50;9.00;;;;;;;;4980327;28;46068;-68
2024/02/06 00:06:01;;;;;;;;;17.00;11.50;;;;;;;;4971016;28;45633;-68
2024/02/06 00:08:26;;;;;;;;;10.67;10.67;;;;;;;;4977007;28;45756;-68
2024/02/06 00:10:51;;;;;;;;;11.67;10.33;;;;;;;;4981496;28;45396;-68
2024/02/06 00:13:16;;;;;;;;;10.33;10.00;;;;;;;;4980394;28;45528;-68
2024/02/06 00:15:43;;;;;;;;;11.00;11.00;;;;;;;;4980780;28;45454;-68
2024/02/06 00:18:08;;;;;;;;;18.00;15.50;;;;;;;;4957513;28;45442;-68
2024/02/06 00:20:33;;;;;;;;;11.00;11.00;;;;;;;;4971878;28;45664;-68
2024/02/06 00:22:59;;;;;;;;;13.33;10.67;;;;;;;;4980874;28;45399;-68
2024/02/06 00:25:24;;;;;;;;;14.00;10.67;;;;;;;;4980773;28;45348;-68
2024/02/06 00:27:49;;;;;;;;;14.00;11.67;;;;;;;;4980683;28;45499;-68
2024/02/06 00:30:15;;;;;;;;;18.00;14.33;;;;;;;;4981135;28;45439;-68
2024/02/06 00:32:40;;;;;;;;;14.00;14.00;;;;;;;;4980247;28;45992;-68
2024/02/06 00:35:05;;;;;;;;;16.00;12.00;;;;;;;;4963223;28;45478;-67
2024/02/06 00:37:32;;;;;;;;;17.50;15.25;;;;;;;;4980848;28;45392;-68
2024/02/06 00:39:57;;;;;;;;;12.00;10.75;;;;;;;;4979878;28;45375;-68
2024/02/06 00:42:23;;;;;;;;;15.33;13.33;;;;;;;;4980514;28;46208;-68
2024/02/06 00:44:48;;;;;;;;;12.75;11.50;;;;;;;;4979090;28;45593;-68
2024/02/06 00:47:14;;;;;;;;;15.67;13.00;;;;;;;;4979433;28;45380;-68
2024/02/06 00:49:40;;;;;;;;;17.25;15.25;;;;;;;;4980510;28;45527;-68
2024/02/06 00:52:05;;;;;;;;;15.00;11.00;;;;;;;;4980547;28;46095;-68
2024/02/06 00:54:30;;;;;;;;;12.00;12.00;;;;;;;;4980654;28;45319;-68
2024/02/06 00:56:55;;;;;;;;;15.00;12.33;;;;;;;;4962217;28;45553;-68
2024/02/06 00:59:20;;;;;;;;;12.00;11.67;;;;;;;;4980316;28;45617;-68
2024/02/06 01:01:47;;;;;;;;;11.33;9.33;;;;;;;;4980219;28;46036;-68
2024/02/06 01:04:12;;;;;;;;;18.00;14.50;;;;;;;;4971644;28;45406;-68
2024/02/06 01:06:37;;;;;;;;;16.00;14.33;;;;;;;;4979309;28;45456;-68
2024/02/06 01:09:02;;;;;;;;;14.67;10.00;;;;;;;;4980305;28;45609;-67
2024/02/06 01:11:27;;;;;;;;;13.00;11.33;;;;;;;;4980188;28;46275;-68
2024/02/06 01:13:53;;;;;;;;;19.33;13.67;;;;;;;;4978588;28;45587;-68
2024/02/06 01:16:18;;;;;;;;;16.00;13.00;;;;;;;;4979993;28;45385;-68
2024/02/06 01:18:43;;;;;;;;;16.67;14.67;;;;;;;;4962264;28;45572;-68
2024/02/06 01:21:08;;;;;;;;;15.67;12.33;;;;;;;;4980112;28;45477;-68
2024/02/06 01:23:33;;;;;;;;;18.33;17.00;;;;;;;;4980221;28;45356;-68
2024/02/06 01:25:58;;;;;;;;;19.00;13.00;;;;;;;;4979718;28;45431;-68
2024/02/06 01:28:24;;;;;;;;;17.00;14.00;;;;;;;;4977667;28;45318;-68
2024/02/06 01:30:49;;;;;;;;;16.00;12.75;;;;;;;;4979842;28;46505;-68
2024/02/06 01:33:14;;;;;;;;;15.67;12.67;;;;;;;;4950600;28;45395;-68
2024/02/06 01:35:39;;;;;;;;;15.67;12.33;;;;;;;;4974208;28;45514;-68
2024/02/06 01:38:04;;;;;;;;;16.33;15.67;;;;;;;;4980102;28;45566;-68
2024/02/06 01:40:30;;;;;;;;;13.00;11.67;;;;;;;;4979932;28;45715;-68
2024/02/06 01:42:55;;;;;;;;;16.75;14.50;;;;;;;;4979937;28;45348;-68
2024/02/06 01:45:20;;;;;;;;;16.00;13.33;;;;;;;;4978135;28;45283;-68
2024/02/06 01:47:46;;;;;;;;;19.33;17.00;;;;;;;;4978706;28;45333;-68
2024/02/06 01:50:12;;;;;;;;;17.50;15.00;;;;;;;;4961859;28;47537;-68
2024/02/06 01:52:38;;;;;;;;;20.75;17.00;;;;;;;;4979877;28;45309;-68
2024/02/06 01:55:03;;;;;;;;;23.00;18.00;;;;;;;;4979588;28;45338;-68
2024/02/06 01:57:30;;;;;;;;;15.50;14.00;;;;;;;;4979029;28;45683;-68
2024/02/06 01:59:56;;;;;;;;;22.75;21.50;;;;;;;;4979543;28;46467;-68
2024/02/06 02:02:21;;;;;;;;;22.25;17.00;;;;;;;;4961875;28;45423;-68
2024/02/06 02:04:46;;;;;;;;;18.00;17.00;;;;;;;;4978619;28;45574;-69
2024/02/06 02:07:13;;;;;;;;;19.00;16.00;;;;;;;;4976400;28;45629;-68
2024/02/06 02:09:38;;;;;;;;;18.00;17.25;;;;;;;;4967431;28;47307;-68
2024/02/06 02:12:03;;;;;;;;;17.33;15.00;;;;;;;;4979355;28;45389;-68
2024/02/06 02:14:28;;;;;;;;;22.25;18.25;;;;;;;;4978940;28;45435;-68
2024/02/06 02:16:54;;;;;;;;;22.33;17.33;;;;;;;;4978803;28;45463;-68
2024/02/06 02:19:19;;;;;;;;;19.33;18.67;;;;;;;;4961804;28;48167;-68
2024/02/06 02:21:44;;;;;;;;;20.67;19.00;;;;;;;;4977882;28;45637;-68
2024/02/06 02:24:09;;;;;;;;;19.00;17.00;;;;;;;;4978081;28;46002;-68
2024/02/06 02:26:35;;;;;;;;;12.00;12.00;;;;;;;;4978992;28;45708;-68
2024/02/06 02:29:01;;;;;;;;;19.75;19.25;;;;;;;;4979081;28;46309;-68
2024/02/06 02:31:27;;;;;;;;;23.00;19.25;;;;;;;;4979095;28;45222;-68
2024/02/06 02:33:52;;;;;;;;;15.00;14.50;;;;;;;;4979049;28;45398;-68
2024/02/06 02:36:17;;;;;;;;;20.67;17.00;;;;;;;;4972469;28;45286;-68
2024/02/06 02:38:42;;;;;;;;;18.50;14.75;;;;;;;;4977282;28;45988;-68
2024/02/06 02:41:07;;;;;;;;;22.67;20.33;;;;;;;;4978990;28;45384;-68
2024/02/06 02:43:33;;;;;;;;;23.25;23.25;;;;;;;;4979111;28;45419;-68
2024/02/06 02:45:58;;;;;;;;;25.00;20.33;;;;;;;;4978965;28;45309;-68
2024/02/06 02:48:23;;;;;;;;;27.00;21.25;;;;;;;;4978823;28;46035;-68
2024/02/06 02:50:48;;;;;;;;;20.33;19.00;;;;;;;;4978946;28;45349;-68
2024/02/06 02:53:14;;;;;;;;;24.00;17.00;;;;;;;;4960196;28;45556;-68
2024/02/06 02:55:39;;;;;;;;;20.33;20.00;;;;;;;;4979064;28;45334;-68
2024/02/06 02:58:05;;;;;;;;;15.67;15.67;;;;;;;;4978642;28;45317;-68
2024/02/06 03:00:30;;;;;;;;;18.25;17.25;;;;;;;;4978540;28;45436;-68
2024/02/06 03:02:56;;;;;;;;;21.25;17.75;;;;;;;;4970228;28;45738;-68
2024/02/06 03:05:21;;;;;;;;;21.00;20.00;;;;;;;;4974297;28;45640;-68
2024/02/06 03:07:46;;;;;;;;;24.00;18.00;;;;;;;;4970207;28;45377;-68
2024/02/06 03:10:11;;;;;;;;;21.33;17.00;;;;;;;;4969426;28;45389;-68
2024/02/06 03:12:36;;;;;;;;;20.00;20.00;;;;;;;;4952987;28;45518;-68
2024/02/06 03:15:02;;;;;;;;;21.00;19.00;;;;;;;;4962902;28;45625;-68
2024/02/06 03:17:27;;;;;;;;;22.25;18.50;;;;;;;;4981717;28;45574;-68
2024/02/06 03:19:53;;;;;;;;;23.67;21.67;;;;;;;;4982042;28;45456;-68
2024/02/06 03:22:22;;;;;;;;;24.25;18.00;;;;;;;;4980520;28;45463;-68
2024/02/06 03:24:48;;;;;;;;;22.25;17.50;;;;;;;;4981826;28;45552;-68
2024/02/06 03:27:13;;;;;;;;;22.50;18.50;;;;;;;;4981532;28;46910;-68
2024/02/06 03:29:40;;;;;;;;;24.00;19.67;;;;;;;;4981766;28;45611;-68
2024/02/06 03:32:06;;;;;;;;;26.50;22.50;;;;;;;;4978777;28;45404;-68
2024/02/06 03:34:31;;;;;;;;;22.00;18.33;;;;;;;;4980163;28;45557;-68
2024/02/06 03:36:57;;;;;;;;;23.00;18.00;;;;;;;;4981919;28;45519;-68
2024/02/06 03:39:22;;;;;;;;;23.33;16.67;;;;;;;;4981666;28;45396;-68
2024/02/06 03:41:47;;;;;;;;;24.33;20.00;;;;;;;;4981555;28;45505;-68
2024/02/06 03:44:13;;;;;;;;;20.75;17.25;;;;;;;;4981505;28;45313;-68
2024/02/06 03:46:38;;;;;;;;;20.75;20.75;;;;;;;;4981376;28;46140;-68
2024/02/06 03:49:03;;;;;;;;;22.33;20.33;;;;;;;;4981535;28;45487;-68
2024/02/06 03:51:29;;;;;;;;;17.00;16.67;;;;;;;;4980365;28;45313;-68
2024/02/06 03:53:54;;;;;;;;;20.33;17.00;;;;;;;;4959132;28;45607;-68
2024/02/06 03:56:19;;;;;;;;;17.67;16.67;;;;;;;;4973225;28;46089;-68
2024/02/06 03:58:45;;;;;;;;;20.33;19.33;;;;;;;;4981296;28;45372;-68
2024/02/06 04:01:10;;;;;;;;;19.00;16.25;;;;;;;;4963528;28;45358;-68
2024/02/06 04:03:35;;;;;;;;;24.67;18.67;;;;;;;;4981312;28;45444;-68
2024/02/06 04:06:00;;;;;;;;;20.67;19.00;;;;;;;;4971396;28;45376;-68
2024/02/06 04:08:26;;;;;;;;;24.00;19.75;;;;;;;;4976016;28;45467;-68
2024/02/06 04:10:51;;;;;;;;;21.25;19.00;;;;;;;;4971709;28;45506;-68
2024/02/06 04:13:16;;;;;;;;;17.33;16.00;;;;;;;;4980931;28;45479;-68
2024/02/06 04:15:41;;;;;;;;;18.00;16.00;;;;;;;;4980750;28;46563;-68
2024/02/06 04:18:06;;;;;;;;;21.00;20.33;;;;;;;;4981099;28;45721;-68
2024/02/06 04:20:32;;;;;;;;;19.00;18.67;;;;;;;;4981125;28;45463;-68
2024/02/06 04:23:00;;;;;;;;;19.00;18.00;;;;;;;;4978976;28;45519;-68
2024/02/06 04:25:25;;;;;;;;;21.50;20.75;;;;;;;;4980896;28;47354;-68
2024/02/06 04:27:50;;;;;;;;;21.75;21.25;;;;;;;;4980706;28;45475;-68
2024/02/06 04:30:16;;;;;;;;;25.33;21.00;;;;;;;;4980972;28;45773;-68
2024/02/06 04:32:42;;;;;;;;;21.50;21.25;;;;;;;;4976800;28;45437;-68
2024/02/06 04:35:07;;;;;;;;;22.50;19.25;;;;;;;;4978754;28;45391;-68
2024/02/06 04:37:32;;;;;;;;;25.50;20.75;;;;;;;;4980540;28;45587;-68
2024/02/06 04:39:58;;;;;;;;;21.33;20.33;;;;;;;;4963288;28;45649;-68
2024/02/06 04:42:23;;;;;;;;;16.00;16.00;;;;;;;;4980253;28;45397;-68
2024/02/06 04:44:48;;;;;;;;;19.00;17.00;;;;;;;;4980812;28;45569;-68
2024/02/06 04:47:13;;;;;;;;;18.67;17.00;;;;;;;;4980502;28;45606;-68
2024/02/06 04:49:38;;;;;;;;;22.00;18.33;;;;;;;;4980904;28;45314;-68
2024/02/06 04:52:04;;;;;;;;;20.67;17.67;;;;;;;;4979467;28;45477;-68
2024/02/06 04:54:29;;;;;;;;;25.75;22.75;;;;;;;;4980536;28;45929;-68
2024/02/06 04:56:54;;;;;;;;;26.33;19.00;;;;;;;;4980170;28;45352;-68
2024/02/06 04:59:20;;;;;;;;;20.75;17.25;;;;;;;;4980196;28;45416;-68
2024/02/06 05:01:46;;;;;;;;;23.33;21.00;;;;;;;;4978899;28;45368;-68
2024/02/06 05:04:11;;;;;;;;;19.75;16.75;;;;;;;;4953301;28;48106;-68
2024/02/06 05:06:37;;;;;;;;;21.25;20.50;;;;;;;;4966965;28;45378;-68
2024/02/06 05:09:02;;;;;;;;;18.25;16.25;;;;;;;;4956697;28;45732;-68
2024/02/06 05:11:27;;;;;;;;;21.50;19.00;;;;;;;;4961934;28;45488;-68
2024/02/06 05:13:52;;;;;;;;;20.50;18.25;;;;;;;;4979305;28;46340;-68
2024/02/06 05:16:18;;;;;;;;;21.67;19.67;;;;;;;;4979977;28;45306;-68
2024/02/06 05:18:43;;;;;;;;;23.33;18.67;;;;;;;;4980359;28;45391;-68
2024/02/06 05:21:08;;;;;;;;;19.75;18.75;;;;;;;;4962174;28;45308;-68
2024/02/06 05:23:34;;;;;;;;;20.50;18.00;;;;;;;;4979088;28;46469;-68
2024/02/06 05:25:59;;;;;;;;;21.25;19.00;;;;;;;;4979674;28;45330;-68
2024/02/06 05:28:24;;;;;;;;;23.00;19.00;;;;;;;;4980319;28;45364;-68
2024/02/06 05:30:49;;;;;;;;;23.00;21.67;;;;;;;;4961876;28;45331;-68
2024/02/06 05:33:15;;;;;;;;;16.67;15.67;;;;;;;;4975232;28;45504;-68
2024/02/06 05:35:40;;;;;;;;;21.25;20.00;;;;;;;;4979781;28;45459;-68
2024/02/06 05:38:05;;;;;;;;;21.33;17.33;;;;;;;;4962535;28;45664;-68
2024/02/06 05:40:31;;;;;;;;;19.67;17.33;;;;;;;;4959272;28;45713;-68
2024/02/06 05:42:56;;;;;;;;;23.00;17.67;;;;;;;;4979730;28;45908;-68
2024/02/06 05:45:22;;;;;;;;;20.00;17.00;;;;;;;;4979416;28;45436;-68
2024/02/06 05:47:47;;;;;;;;;18.75;15.25;;;;;;;;4954440;28;45477;-68
2024/02/06 05:50:12;;;;;;;;;23.00;17.50;;;;;;;;4974203;28;45486;-68
2024/02/06 05:52:37;;;;;;;;;21.33;21.00;;;;;;;;4961214;28;48269;-68
2024/02/06 05:55:03;;;;;;;;;23.33;19.67;;;;;;;;4961922;28;45656;-68
2024/02/06 05:57:29;;;;;;;;;14.25;14.00;;;;;;;;4979666;28;45639;-68
2024/02/06 05:59:54;;;;;;;;;21.00;16.67;;;;;;;;4961490;28;45430;-68
2024/02/06 06:02:19;;;;;;;;;19.67;18.00;;;;;;;;4978885;28;46492;-68
2024/02/06 06:04:46;;;;;;;;;17.33;16.00;;;;;;;;4979474;28;45431;-68
2024/02/06 06:07:11;;;;;;;;;21.75;18.50;;;;;;;;4977261;28;45384;-68
2024/02/06 06:09:36;;;;;;;;;19.00;17.33;;;;;;;;4949131;28;45287;-68
2024/02/06 06:12:01;;;;;;;;;19.00;19.00;;;;;;;;4961313;28;48353;-68
2024/02/06 06:14:27;;;;;;;;;21.00;18.50;;;;;;;;4961692;28;45998;-68
2024/02/06 06:16:52;;;;;;;;;19.33;16.67;;;;;;;;4952348;28;45429;-68
2024/02/06 06:19:17;;;;;;;;;24.00;18.00;;;;;;;;4977471;28;45475;-68
2024/02/06 06:21:42;;;;;;;;;26.00;18.67;;;;;;;;4961567;28;47073;-68
2024/02/06 06:24:08;;;;;;;;;22.67;22.67;;;;;;;;4979136;28;45439;-68
2024/02/06 06:26:34;;;;;;;;;19.75;17.50;;;;;;;;4978863;28;45451;-68
2024/02/06 06:28:59;;;;;;;;;17.75;16.25;;;;;;;;4976923;28;46277;-68
2024/02/06 06:31:24;;;;;;;;;18.67;18.67;;;;;;;;4979183;28;46301;-68
2024/02/06 06:33:49;;;;;;;;;17.33;17.00;;;;;;;;4944624;28;45519;-68
2024/02/06 06:36:15;;;;;;;;;17.67;14.67;;;;;;;;4961360;28;45470;-68
2024/02/06 06:38:40;;;;;;;;;17.33;15.33;;;;;;;;4978249;28;45536;-68
2024/02/06 06:41:05;;;;;;;;;18.75;18.00;;;;;;;;4978677;28;45277;-68
2024/02/06 06:43:30;;;;;;;;;13.25;13.25;;;;;;;;4979349;28;45305;-68
2024/02/06 06:45:56;;;;;;;;;22.75;16.75;;;;;;;;4982009;28;45525;-68
2024/02/06 06:48:21;;;;;;;;;19.67;16.67;;;;;;;;4982410;28;45566;-68
2024/02/06 06:50:46;;;;;;;;;21.33;18.67;;;;;;;;4964683;28;47163;-68
2024/02/06 06:53:11;;;;;;;;;19.33;16.33;;;;;;;;4964811;28;45374;-68
2024/02/06 06:55:36;;;;;;;;;18.33;18.33;;;;;;;;4982180;28;45328;-68
2024/02/06 06:58:02;;;;;;;;;14.67;14.00;;;;;;;;4981908;28;45332;-68
2024/02/06 07:00:27;;;;;;;;;24.00;20.00;;;;;;;;4982000;28;45387;-68
2024/02/06 07:02:52;;;;;;;;;20.33;17.00;;;;;;;;4973595;28;45382;-68
2024/02/06 07:05:21;;;;;;;;;18.67;18.00;;;;;;;;4959957;28;45445;-67
2024/02/06 07:07:46;;;;;;;;;17.50;14.50;;;;;;;;4980530;28;45425;-67
2024/02/06 07:10:11;;;;;;;;;18.33;17.33;;;;;;;;4970194;28;45415;-68
2024/02/06 07:12:36;;;;;;;;;21.00;17.33;;;;;;;;4964306;28;45643;-67
2024/02/06 07:15:03;;;;;;;;;18.00;16.00;;;;;;;;4981384;28;45567;-67
2024/02/06 07:17:29;;;;;;;;;17.25;14.25;;;;;;;;4974179;28;45670;-67
2024/02/06 07:19:54;;;;;;;;;14.50;10.75;;;;;;;;4979257;28;46049;-67
2024/02/06 07:22:19;;;;;;;;;17.33;16.00;;;;;;;;4981178;28;45242;-67
2024/02/06 07:24:45;;;;;;;;;17.00;17.00;;;;;;;;4981848;28;45396;-66
2024/02/06 07:27:10;;;;;;;;;18.67;16.67;;;;;;;;4960712;28;45389;-65
2024/02/06 07:29:36;;;;;;;;;15.50;14.00;;;;;;;;4955647;28;46796;-66
2024/02/06 07:32:02;;;;;;;;;17.00;15.75;;;;;;;;4979388;28;45621;-67
2024/02/06 07:34:27;;;;;;;;;17.75;16.25;;;;;;;;4971090;28;45996;-68
2024/02/06 07:36:53;;;;;;;;;18.50;16.50;;;;;;;;4963510;28;45626;-67
2024/02/06 07:39:18;;;;;;;;;15.25;13.25;;;;;;;;4974574;28;45503;-68
2024/02/06 07:41:43;;;;;;;;;17.00;17.00;;;;;;;;4960228;28;45813;-67
2024/02/06 07:44:11;;;;;;;;;16.00;12.67;;;;;;;;4980200;28;45407;-67
2024/02/06 07:46:36;;;;;;;;;18.75;17.75;;;;;;;;4981000;28;45309;-67
2024/02/06 07:49:01;;;;;;;;;18.75;15.25;;;;;;;;4981355;28;45556;-67
2024/02/06 07:51:27;;;;;;;;;16.67;16.00;;;;;;;;4961213;28;45528;-69
2024/02/06 07:53:56;;;;;;;;;17.50;15.00;;;;;;;;4963141;28;45575;-68
2024/02/06 07:56:21;;;;;;;;;12.00;12.00;;;;;;;;4962652;28;45953;-70
2024/02/06 07:58:47;;;;;;;;;18.75;16.25;;;;;;;;4981167;28;46186;-67
2024/02/06 08:01:12;;;;;;;;;13.50;13.50;;;;;;;;4973428;28;45388;-67
2024/02/06 08:03:38;;;;;;;;;17.25;16.00;;;;;;;;4980148;28;45596;-67
2024/02/06 08:06:03;;;;;;;;;13.50;11.50;;;;;;;;4958666;28;45824;-67
2024/02/06 08:08:28;;;;;;;;;17.50;13.75;;;;;;;;4949967;28;48370;-67
2024/02/06 08:10:54;;;;;;;;;14.33;11.33;;;;;;;;4955018;28;46968;-67
2024/02/06 08:13:19;;;;;;;;;13.00;12.67;;;;;;;;4969279;28;45529;-67
2024/02/06 08:15:44;;;;;;;;;16.33;12.67;;;;;;;;4967308;28;45432;-67
2024/02/06 08:18:10;;;;;;;;;17.00;15.33;;;;;;;;4978610;28;45389;-67
2024/02/06 08:20:35;;;;;;;;;12.50;12.00;;;;;;;;4978223;28;45467;-67
2024/02/06 08:23:00;;;;;;;;;16.33;15.00;;;;;;;;4952252;28;45924;-67
2024/02/06 08:25:26;;;;;;;;;13.25;12.25;;;;;;;;4978786;28;45622;-67
2024/02/06 08:27:51;;;;;;;;;13.00;11.33;;;;;;;;4978544;28;46161;-68
2024/02/06 08:30:17;;;;;;;;;12.50;12.00;;;;;;;;4953055;28;45825;-67
2024/02/06 08:32:42;;;;;;;;;16.00;12.00;;;;;;;;4951642;28;45441;-66
2024/02/06 08:35:08;;;;;;;;;17.25;13.75;;;;;;;;4973339;28;45287;-67
2024/02/06 08:37:33;;;;;;;;;14.25;12.50;;;;;;;;4953937;28;46507;-66
2024/02/06 08:40:01;;;;;;;;;16.50;15.75;;;;;;;;4980409;28;45531;-67
2024/02/06 08:42:26;;;;;;;;;12.25;11.75;;;;;;;;4973358;28;45512;-67
2024/02/06 08:44:52;;;;;;;;;14.25;13.50;;;;;;;;4978016;28;45574;-67
2024/02/06 08:47:17;;;;;;;;;11.50;10.50;;;;;;;;4974364;28;46307;-66
2024/02/06 08:49:42;;;;;;;;;17.00;14.67;;;;;;;;4978093;28;45460;-66
2024/02/06 08:52:08;;;;;;;;;12.00;12.00;;;;;;;;4953609;28;45428;-67
2024/02/06 08:54:33;;;;;;;;;12.75;11.75;;;;;;;;4971991;28;45570;-67
2024/02/06 08:56:58;;;;;;;;;9.25;6.25;;;;;;;;4968749;28;46052;-67
2024/02/06 08:59:24;;;;;;;;;11.67;10.33;;;;;;;;4950864;28;45485;-67
2024/02/06 09:01:49;;;;;;;;;13.25;11.75;;;;;;;;4969644;28;45776;-67
2024/02/06 09:04:14;;;;;;;;;12.75;10.75;;;;;;;;4976573;28;45392;-67
2024/02/06 09:06:40;;;;;;;;;11.50;11.00;;;;;;;;4966644;28;46261;-67
2024/02/06 09:09:05;;;;;;;;;19.00;15.50;;;;;;;;4958565;28;45844;-67
2024/02/06 09:11:31;;;;;;;;;7.33;7.33;;;;;;;;4948771;28;45590;-67
2024/02/06 09:13:56;;;;;;;;;12.75;11.25;;;;;;;;4977085;28;45455;-67
2024/02/06 09:16:24;;;;;;;;;13.00;12.25;;;;;;;;4970564;28;45409;-67
2024/02/06 09:18:49;;;;;;;;;19.50;14.25;;;;;;;;4978788;28;45385;-67
2024/02/06 09:21:15;;;;;;;;;13.25;12.00;;;;;;;;4955355;28;45496;-67
2024/02/06 09:23:41;;;;;;;;;11.50;11.00;;;;;;;;4970991;28;45518;-67
2024/02/06 09:26:08;;;;;;;;;15.00;11.67;;;;;;;;4955305;28;47509;-67
2024/02/06 09:28:34;;;;;;;;;13.75;11.00;;;;;;;;4957221;28;45725;-67
2024/02/06 09:30:59;;;;;;;;;12.67;12.67;;;;;;;;4974029;28;45447;-67
2024/02/06 09:33:24;;;;;;;;;12.00;10.00;;;;;;;;4977108;28;45524;-67
2024/02/06 09:35:50;;;;;;;;;14.33;12.00;;;;;;;;4972835;28;45578;-67
2024/02/06 09:38:15;;;;;;;;;13.75;13.25;;;;;;;;4965840;28;45470;-67
2024/02/06 09:40:41;;;;;;;;;12.33;12.00;;;;;;;;4960040;28;45417;-67
2024/02/06 09:43:06;;;;;;;;;13.25;9.25;;;;;;;;4970485;28;45416;-67
2024/02/06 09:45:31;;;;;;;;;12.50;10.00;;;;;;;;4970584;28;45720;-67
2024/02/06 09:47:57;;;;;;;;;13.00;12.25;;;;;;;;4970774;28;45485;-67
2024/02/06 09:50:22;;;;;;;;;15.00;12.33;;;;;;;;4973609;28;45303;-67
2024/02/06 09:52:48;;;;;;;;;13.67;10.67;;;;;;;;4964865;28;45614;-67
2024/02/06 09:55:14;;;;;;;;;13.50;12.00;;;;;;;;4971811;28;45424;-67
2024/02/06 09:57:40;;;;;;;;;13.00;9.50;;;;;;;;4951264;28;46208;-67
2024/02/06 10:00:07;;;;;;;;;11.25;11.00;;;;;;;;4971880;28;47044;-67
2024/02/06 10:02:34;;;;;;;;;10.25;10.25;;;;;;;;4969151;28;45452;-67
2024/02/06 10:05:02;;;;;;;;;7.50;7.50;;;;;;;;4975822;28;45610;-69
2024/02/06 10:07:29;;;;;;;;;8.00;6.00;;;;;;;;4968327;28;45616;-67
2024/02/06 10:09:54;;;;;;;;;10.00;9.00;;;;;;;;4954179;28;45444;-67
2024/02/06 10:12:19;;;;;;;;;11.00;10.00;;;;;;;;4974150;28;45413;-67
2024/02/06 10:14:44;;;;;;;;;11.50;10.50;;;;;;;;4950582;28;48075;-66
2024/02/06 10:17:11;;;;;;;;;12.25;9.75;;;;;;;;4966233;28;45374;-66
2024/02/06 10:19:36;;;;;;;;;10.75;9.75;;;;;;;;4972398;28;45843;-67
2024/02/06 10:22:01;;;;;;;;;9.25;9.25;;;;;;;;4950288;28;45737;-67
2024/02/06 10:24:29;;;;;;;;;11.00;10.00;;;;;;;;4970656;28;46008;-67
2024/02/06 10:26:57;;;;;;;;;15.25;11.50;;;;;;;;4975142;28;45456;-67
2024/02/06 10:29:23;;;;;;;;;9.75;6.75;;;;;;;;4960055;28;45458;-67
2024/02/06 10:31:49;;;;;;;;;7.75;7.75;;;;;;;;4951567;28;45631;-67
2024/02/06 10:34:14;;;;;;;;;13.25;11.00;;;;;;;;4962544;28;45440;-67
2024/02/06 10:36:40;;;;;;;;;11.50;9.00;;;;;;;;4966287;28;45744;-67
2024/02/06 10:39:06;;;;;;;;;14.25;12.00;;;;;;;;4971158;28;45673;-67
2024/02/06 10:41:31;;;;;;;;;13.00;12.50;;;;;;;;4966763;28;45846;-67
2024/02/06 10:43:56;;;;;;;;;10.00;9.25;;;;;;;;4968203;28;45520;-67
2024/02/06 10:46:22;;;;;;;;;9.00;7.00;;;;;;;;4965701;28;45349;-67
2024/02/06 10:48:47;;;;;;;;;8.25;8.25;;;;;;;;4967146;28;45505;-67
2024/02/06 10:51:20;;;;;;;;;14.00;10.00;;;;;;;;4974378;28;46034;-67
2024/02/06 10:53:46;;;;;;;;;10.00;8.50;;;;;;;;4970773;28;45664;-68
2024/02/06 10:56:13;;;;;;;;;9.33;9.33;;;;;;;;4976587;28;45506;-67
2024/02/06 10:58:41;;;;;;;;;12.75;10.25;;;;;;;;4972184;28;45536;-67
2024/02/06 11:01:08;;;;;;;;;12.00;10.75;;;;;;;;4964373;28;45424;-67
2024/02/06 11:03:36;;;;;;;;;9.75;9.75;;;;;;;;4954279;28;46647;-67
2024/02/06 11:06:15;;;;;;;;;11.50;10.75;;;;;;;;4956081;28;46215;-67
2024/02/06 11:08:42;;;;;;;;;10.25;7.25;;;;;;;;4949876;28;45473;-67
2024/02/06 11:11:07;;;;;;;;;11.50;10.00;;;;;;;;4977045;28;45358;-67
2024/02/06 11:13:39;;;;;;;;;14.25;12.00;;;;;;;;4958520;28;46895;-67
2024/02/06 11:16:08;;;;;;;;;12.00;8.50;;;;;;;;4963207;28;45687;-67
2024/02/06 11:18:43;;;;;;;;;11.00;11.00;;;;;;;;4960222;28;45732;-67
2024/02/06 11:21:10;;;;;;;;;10.00;10.00;;;;;;;;4954255;28;45643;-67
2024/02/06 11:23:36;;;;;;;;;9.75;9.75;;;;;;;;4948102;28;47021;-67
2024/02/06 11:26:01;;;;;;;;;10.00;8.50;;;;;;;;4959511;28;45433;-67
2024/02/06 11:28:27;;;;;;;;;8.00;8.00;;;;;;;;4975694;28;45471;-68
2024/02/06 11:30:59;;;;;;;;;11.50;10.00;;;;;;;;4976437;28;45458;-67
2024/02/06 11:33:37;;;;;;;;;7.50;7.25;;;;;;;;4975337;28;47024;-67
2024/02/06 11:36:12;;;;;;;;;13.00;11.00;;;;;;;;4957181;28;45662;-68
2024/02/06 11:38:38;;;;;;;;;8.25;7.50;;;;;;;;4978882;28;45467;-67
2024/02/06 11:41:10;;;;;;;;;12.25;12.25;;;;;;;;4980143;28;45485;-67
2024/02/06 11:43:37;;;;;;;;;9.25;8.25;;;;;;;;4963116;28;45688;-67
2024/02/06 11:46:03;;;;;;;;;12.00;9.50;;;;;;;;4972096;28;45484;-68
2024/02/06 11:48:28;;;;;;;;;8.25;8.25;;;;;;;;4975554;28;45886;-67
2024/02/06 11:50:53;;;;;;;;;13.00;10.00;;;;;;;;4965334;28;45502;-67
2024/02/06 11:53:24;;;;;;;;;9.33;7.00;;;;;;;;4950881;28;48364;-67
2024/02/06 11:55:50;;;;;;;;;10.25;8.75;;;;;;;;4971764;28;45659;-68
2024/02/06 11:58:15;;;;;;;;;10.00;10.00;;;;;;;;4971806;28;45599;-67
2024/02/06 12:00:41;;;;;;;;;13.50;11.00;;;;;;;;4976588;28;45416;-67
2024/02/06 12:03:06;;;;;;;;;12.67;11.67;;;;;;;;4976811;28;45494;-66
2024/02/06 12:05:38;;;;;;;;;15.00;12.67;;;;;;;;4977171;28;45435;-67
2024/02/06 12:08:04;;;;;;;;;14.25;12.25;;;;;;;;4974248;28;45526;-66
2024/02/06 12:10:30;;;;;;;;;14.50;11.00;;;;;;;;4957349;28;45508;-67
2024/02/06 12:13:00;;;;;;;;;12.00;11.00;;;;;;;;4974084;28;45574;-66
2024/02/06 12:15:26;;;;;;;;;14.25;13.75;;;;;;;;4960021;28;46191;-68
2024/02/06 12:17:51;;;;;;;;;13.75;13.25;;;;;;;;4971689;28;45678;-67
2024/02/06 12:20:17;;;;;;;;;12.33;12.33;;;;;;;;4969516;28;45903;-67
2024/02/06 12:22:43;;;;;;;;;14.00;12.00;;;;;;;;4975574;28;46288;-67
2024/02/06 12:25:12;;;;;;;;;14.00;9.00;;;;;;;;4967323;28;45342;-68
2024/02/06 12:27:38;;;;;;;;;10.50;9.25;;;;;;;;4962300;28;45486;-67
2024/02/06 12:30:04;;;;;;;;;11.75;10.50;;;;;;;;4970462;28;45567;-67
2024/02/06 12:32:29;;;;;;;;;11.50;10.25;;;;;;;;4958248;28;47418;-67
2024/02/06 12:34:54;;;;;;;;;15.00;11.67;;;;;;;;4976942;28;45535;-67
2024/02/06 12:37:19;;;;;;;;;14.00;11.33;;;;;;;;4972720;28;45550;-67
2024/02/06 12:39:45;;;;;;;;;13.00;10.33;;;;;;;;4974030;28;45775;-68
2024/02/06 12:42:11;;;;;;;;;11.33;11.33;;;;;;;;4957629;28;46305;-68
2024/02/06 12:44:37;;;;;;;;;14.00;12.25;;;;;;;;4972922;28;45353;-68
2024/02/06 12:47:03;;;;;;;;;13.00;10.67;;;;;;;;4972130;28;45333;-68
2024/02/06 12:49:28;;;;;;;;;13.25;12.00;;;;;;;;4966590;28;45508;-67
2024/02/06 12:51:55;;;;;;;;;12.00;11.75;;;;;;;;4975114;28;45444;-67
2024/02/06 12:54:20;;;;;;;;;12.50;8.00;;;;;;;;4974610;28;45387;-68
2024/02/06 12:56:45;;;;;;;;;12.25;10.00;;;;;;;;4972774;28;45404;-67
2024/02/06 12:59:11;;;;;;;;;10.33;10.00;;;;;;;;4977496;28;45466;-68
2024/02/06 13:01:36;;;;;;;;;14.50;13.00;;;;;;;;4965836;28;45274;-67
2024/02/06 13:04:01;;;;;;;;;17.33;11.67;;;;;;;;4971130;28;45513;-67
2024/02/06 13:06:36;;;;;;;;;8.33;7.00;;;;;;;;4953516;28;45461;-67
2024/02/06 13:09:02;;;;;;;;;10.25;9.00;;;;;;;;4978471;28;45558;-68
2024/02/06 13:11:27;;;;;;;;;11.25;10.00;;;;;;;;4979680;28;45518;-68
2024/02/06 13:13:53;;;;;;;;;12.00;8.67;;;;;;;;4975889;28;45459;-67
2024/02/06 13:16:18;;;;;;;;;10.50;9.00;;;;;;;;4975868;28;45451;-67
2024/02/06 13:18:43;;;;;;;;;11.25;11.25;;;;;;;;4956128;28;45476;-67
2024/02/06 13:21:08;;;;;;;;;9.33;9.00;;;;;;;;4974632;28;46108;-67
2024/02/06 13:23:36;;;;;;;;;12.67;7.67;;;;;;;;4962009;28;45810;-67
2024/02/06 13:26:01;;;;;;;;;9.25;9.00;;;;;;;;4979713;28;45409;-68
2024/02/06 13:28:27;;;;;;;;;10.25;9.00;;;;;;;;4962079;28;45706;-69
2024/02/06 13:30:52;;;;;;;;;8.67;8.67;;;;;;;;4976846;28;45766;-67
2024/02/06 13:33:17;;;;;;;;;7.00;6.00;;;;;;;;4965110;28;45403;-68
2024/02/06 13:35:42;;;;;;;;;6.75;6.75;;;;;;;;4974036;28;45234;-68
2024/02/06 13:38:08;;;;;;;;;5.33;5.00;;;;;;;;4973782;28;45294;-67
2024/02/06 13:40:34;;;;;;;;;7.50;7.00;;;;;;;;4977795;28;45645;-68
2024/02/06 13:43:00;;;;;;;;;15.75;10.75;;;;;;;;4970089;28;45356;-68
2024/02/06 13:45:25;;;;;;;;;10.00;8.67;;;;;;;;4976290;28;45322;-68
2024/02/06 13:47:50;;;;;;;;;9.00;7.00;;;;;;;;4952367;28;45991;-67
2024/02/06 13:50:15;;;;;;;;;8.33;5.33;;;;;;;;4950293;28;47312;-68
2024/02/06 13:52:40;;;;;;;;;7.00;7.00;;;;;;;;4978768;28;45567;-67
2024/02/06 13:55:06;;;;;;;;;9.00;7.00;;;;;;;;4979411;28;45483;-67
2024/02/06 13:57:32;;;;;;;;;10.25;8.00;;;;;;;;4976639;28;45317;-67
2024/02/06 13:59:57;;;;;;;;;8.75;6.75;;;;;;;;4972630;28;45980;-67
2024/02/06 14:02:23;;;;;;;;;6.00;5.00;;;;;;;;4960536;28;46246;-68
2024/02/06 14:04:48;;;;;;;;;8.33;6.00;;;;;;;;4977952;28;45562;-68
2024/02/06 14:07:14;;;;;;;;;8.67;7.67;;;;;;;;4979111;28;45542;-68
2024/02/06 14:09:39;;;;;;;;;9.25;7.50;;;;;;;;4977334;28;46283;-68
2024/02/06 14:12:04;;;;;;;;;6.00;6.00;;;;;;;;4950334;28;45632;-67